sensor_id;sensor_type;location;lat;lon;timestamp;pressure;altitude;pressure_sealevel;temperature;humidity
13869;BME280;7004;48.206;16.402;2023-06-26T00:00:22;99766.41;;;20.15;74.95
13869;BME280;7004;48.206;16.402;2023-06-26T00:02:49;99770.28;;;19.94;76.15
13869;BME280;7004;48.206;16.402;2023-06-26T00:05:15;99780.09;;;20.03;75.95
13869;BME280;7004;48.206;16.402;2023-06-26T00:07:41;99782.03;;;20.45;73.64
13869;BME280;7004;48.206;16.402;2023-06-26T00:10:08;99777.03;;;20.50;73.65
13869;BME280;7004;48.206;16.402;2023-06-26T00:12:34;99774.44;;;20.41;74.03
13869;BME280;7004;48.206;16.402;2023-06-26T00:15:00;99784.78;;;20.27;74.79
13869;BME280;7004;48.206;16.402;2023-06-26T00:17:27;99773.34;;;20.25;74.15
13869;BME280;7004;48.206;16.402;2023-06-26T00:19:54;99781.03;;;20.46;73.79
13869;BME280;7004;48.206;16.402;2023-06-26T00:22:21;99781.53;;;20.42;73.98
13869;BME280;7004;48.206;16.402;2023-06-26T00:24:47;99785.44;;;20.21;75.69
13869;BME280;7004;48.206;16.402;2023-06-26T00:27:14;99785.09;;;20.50;74.17
13869;BME280;7004;48.206;16.402;2023-06-26T00:29:41;99778.34;;;20.46;74.70
13869;BME280;7004;48.206;16.402;2023-06-26T00:32:07;99772.56;;;20.59;73.82
13869;BME280;7004;48.206;16.402;2023-06-26T00:34:33;99777.88;;;20.25;74.75
13869;BME280;7004;48.206;16.402;2023-06-26T00:36:59;99777.75;;;19.82;76.95
13869;BME280;7004;48.206;16.402;2023-06-26T00:39:26;99777.00;;;19.90;76.92
13869;BME280;7004;48.206;16.402;2023-06-26T00:41:52;99781.09;;;19.84;77.23
13869;BME280;7004;48.206;16.402;2023-06-26T00:44:20;99776.09;;;20.07;76.57
13869;BME280;7004;48.206;16.402;2023-06-26T00:46:46;99774.88;;;20.02;76.64
13869;BME280;7004;48.206;16.402;2023-06-26T00:49:12;99776.47;;;20.13;76.45
13869;BME280;7004;48.206;16.402;2023-06-26T00:51:40;99774.63;;;20.13;76.76
13869;BME280;7004;48.206;16.402;2023-06-26T00:54:06;99770.41;;;20.37;75.38
13869;BME280;7004;48.206;16.402;2023-06-26T00:56:33;99774.09;;;20.36;75.50
13869;BME280;7004;48.206;16.402;2023-06-26T00:58:59;99771.34;;;20.01;76.91
13869;BME280;7004;48.206;16.402;2023-06-26T01:01:26;99772.22;;;19.66;78.25
13869;BME280;7004;48.206;16.402;2023-06-26T01:03:53;99761.34;;;19.85;78.19
13869;BME280;7004;48.206;16.402;2023-06-26T01:06:22;99765.25;;;19.55;79.19
13869;BME280;7004;48.206;16.402;2023-06-26T01:08:51;99762.28;;;19.40;79.65
13869;BME280;7004;48.206;16.402;2023-06-26T01:11:18;99763.50;;;19.46;79.71
13869;BME280;7004;48.206;16.402;2023-06-26T01:13:44;99757.72;;;19.95;77.58
13869;BME280;7004;48.206;16.402;2023-06-26T01:16:12;99750.66;;;19.68;78.54
13869;BME280;7004;48.206;16.402;2023-06-26T01:18:39;99749.88;;;19.57;78.80
13869;BME280;7004;48.206;16.402;2023-06-26T01:21:08;99757.78;;;19.77;78.71
13869;BME280;7004;48.206;16.402;2023-06-26T01:24:12;99753.28;;;20.03;77.47
13869;BME280;7004;48.206;16.402;2023-06-26T01:26:49;99754.06;;;19.96;77.52
13869;BME280;7004;48.206;16.402;2023-06-26T01:29:17;99747.31;;;19.92;77.57
13869;BME280;7004;48.206;16.402;2023-06-26T01:31:44;99754.00;;;19.52;79.50
13869;BME280;7004;48.206;16.402;2023-06-26T01:34:18;99758.22;;;19.54;80.12
13869;BME280;7004;48.206;16.402;2023-06-26T01:36:45;99754.13;;;19.14;81.37
13869;BME280;7004;48.206;16.402;2023-06-26T01:39:17;99754.63;;;19.46;80.55
13869;BME280;7004;48.206;16.402;2023-06-26T01:41:44;99754.13;;;19.14;81.41
13869;BME280;7004;48.206;16.402;2023-06-26T01:44:28;99752.47;;;19.31;81.07
13869;BME280;7004;48.206;16.402;2023-06-26T01:47:02;99753.25;;;19.41;80.97
13869;BME280;7004;48.206;16.402;2023-06-26T01:49:54;99756.00;;;19.50;79.82
13869;BME280;7004;48.206;16.402;2023-06-26T01:52:44;99748.41;;;19.45;80.00
13869;BME280;7004;48.206;16.402;2023-06-26T01:55:52;99744.78;;;19.90;78.41
13869;BME280;7004;48.206;16.402;2023-06-26T01:58:23;99741.69;;;19.77;79.36
13869;BME280;7004;48.206;16.402;2023-06-26T02:00:50;99737.84;;;19.79;78.87
13869;BME280;7004;48.206;16.402;2023-06-26T02:03:16;99731.63;;;19.61;79.36
13869;BME280;7004;48.206;16.402;2023-06-26T02:05:42;99729.47;;;19.64;79.63
13869;BME280;7004;48.206;16.402;2023-06-26T02:08:09;99733.03;;;19.29;80.51
13869;BME280;7004;48.206;16.402;2023-06-26T02:10:36;99728.41;;;19.04;82.24
13869;BME280;7004;48.206;16.402;2023-06-26T02:13:02;99730.03;;;19.14;81.53
13869;BME280;7004;48.206;16.402;2023-06-26T02:15:28;99735.63;;;19.21;81.22
13869;BME280;7004;48.206;16.402;2023-06-26T02:17:54;99737.03;;;19.25;80.89
13869;BME280;7004;48.206;16.402;2023-06-26T02:20:20;99737.13;;;19.06;82.00
13869;BME280;7004;48.206;16.402;2023-06-26T02:22:46;99731.56;;;18.99;82.25
13869;BME280;7004;48.206;16.402;2023-06-26T02:25:12;99731.81;;;18.78;83.16
13869;BME280;7004;48.206;16.402;2023-06-26T02:27:39;99724.53;;;19.16;81.38
13869;BME280;7004;48.206;16.402;2023-06-26T02:30:05;99733.72;;;19.13;81.81
13869;BME280;7004;48.206;16.402;2023-06-26T02:32:32;99746.88;;;19.25;81.01
13869;BME280;7004;48.206;16.402;2023-06-26T02:34:58;99736.66;;;18.92;83.41
13869;BME280;7004;48.206;16.402;2023-06-26T02:37:24;99734.88;;;19.29;81.29
13869;BME280;7004;48.206;16.402;2023-06-26T02:39:50;99741.13;;;18.74;84.19
13869;BME280;7004;48.206;16.402;2023-06-26T02:42:16;99742.38;;;19.25;81.27
13869;BME280;7004;48.206;16.402;2023-06-26T02:44:43;99740.44;;;18.99;82.86
13869;BME280;7004;48.206;16.402;2023-06-26T02:47:09;99743.03;;;19.09;82.19
13869;BME280;7004;48.206;16.402;2023-06-26T02:49:35;99749.56;;;18.79;84.00
13869;BME280;7004;48.206;16.402;2023-06-26T02:52:01;99746.00;;;19.06;82.08
13869;BME280;7004;48.206;16.402;2023-06-26T02:54:27;99752.47;;;18.86;83.01
13869;BME280;7004;48.206;16.402;2023-06-26T02:56:53;99750.22;;;19.09;81.75
13869;BME280;7004;48.206;16.402;2023-06-26T02:59:19;99753.28;;;19.14;81.87
13869;BME280;7004;48.206;16.402;2023-06-26T03:01:46;99747.41;;;19.10;81.55
13869;BME280;7004;48.206;16.402;2023-06-26T03:04:12;99749.03;;;19.21;81.44
13869;BME280;7004;48.206;16.402;2023-06-26T03:06:38;99748.31;;;19.01;82.68
13869;BME280;7004;48.206;16.402;2023-06-26T03:09:04;99749.56;;;19.07;82.86
13869;BME280;7004;48.206;16.402;2023-06-26T03:11:31;99754.22;;;18.77;83.66
13869;BME280;7004;48.206;16.402;2023-06-26T03:13:58;99756.69;;;18.88;83.53
13869;BME280;7004;48.206;16.402;2023-06-26T03:16:24;99760.91;;;18.91;83.50
13869;BME280;7004;48.206;16.402;2023-06-26T03:18:50;99758.31;;;18.81;83.95
13869;BME280;7004;48.206;16.402;2023-06-26T03:21:17;99759.94;;;18.92;83.48
13869;BME280;7004;48.206;16.402;2023-06-26T03:23:43;99757.47;;;18.98;83.14
13869;BME280;7004;48.206;16.402;2023-06-26T03:26:10;99756.72;;;19.06;82.93
13869;BME280;7004;48.206;16.402;2023-06-26T03:28:35;99761.66;;;19.11;82.14
13869;BME280;7004;48.206;16.402;2023-06-26T03:31:02;99759.19;;;18.99;82.36
13869;BME280;7004;48.206;16.402;2023-06-26T03:33:28;99758.09;;;18.92;82.76
13869;BME280;7004;48.206;16.402;2023-06-26T03:35:55;99765.03;;;19.13;81.78
13869;BME280;7004;48.206;16.402;2023-06-26T03:38:22;99762.88;;;19.16;82.00
13869;BME280;7004;48.206;16.402;2023-06-26T03:40:49;99767.00;;;19.11;81.88
13869;BME280;7004;48.206;16.402;2023-06-26T03:43:27;99776.53;;;18.95;82.16
13869;BME280;7004;48.206;16.402;2023-06-26T03:45:54;99768.31;;;19.07;82.40
13869;BME280;7004;48.206;16.402;2023-06-26T03:48:20;99769.06;;;18.99;82.98
13869;BME280;7004;48.206;16.402;2023-06-26T03:50:46;99768.63;;;19.21;82.01
13869;BME280;7004;48.206;16.402;2023-06-26T03:53:12;99775.56;;;19.14;82.21
13869;BME280;7004;48.206;16.402;2023-06-26T03:55:38;99767.91;;;19.02;83.46
13869;BME280;7004;48.206;16.402;2023-06-26T03:58:05;99768.16;;;19.26;81.76
13869;BME280;7004;48.206;16.402;2023-06-26T04:00:31;99780.41;;;19.29;81.79
13869;BME280;7004;48.206;16.402;2023-06-26T04:02:57;99780.03;;;19.24;82.02
13869;BME280;7004;48.206;16.402;2023-06-26T04:05:23;99780.16;;;19.22;82.28
13869;BME280;7004;48.206;16.402;2023-06-26T04:07:53;99776.91;;;19.28;82.26
13869;BME280;7004;48.206;16.402;2023-06-26T04:10:20;99779.03;;;19.25;83.10
13869;BME280;7004;48.206;16.402;2023-06-26T04:12:47;99778.88;;;19.26;83.37
13869;BME280;7004;48.206;16.402;2023-06-26T04:15:14;99768.63;;;19.21;83.93
13869;BME280;7004;48.206;16.402;2023-06-26T04:17:40;99774.91;;;19.30;84.00
13869;BME280;7004;48.206;16.402;2023-06-26T04:20:07;99775.44;;;19.34;84.14
13869;BME280;7004;48.206;16.402;2023-06-26T04:22:34;99772.13;;;19.22;85.02
13869;BME280;7004;48.206;16.402;2023-06-26T04:25:04;99774.69;;;19.41;84.88
13869;BME280;7004;48.206;16.402;2023-06-26T04:27:30;99776.28;;;19.52;84.05
13869;BME280;7004;48.206;16.402;2023-06-26T04:29:56;99777.97;;;19.53;84.31
13869;BME280;7004;48.206;16.402;2023-06-26T04:32:22;99776.91;;;19.64;84.42
13869;BME280;7004;48.206;16.402;2023-06-26T04:34:49;99776.94;;;19.82;84.02
13869;BME280;7004;48.206;16.402;2023-06-26T04:37:15;99773.19;;;19.75;84.35
13869;BME280;7004;48.206;16.402;2023-06-26T04:39:43;99767.16;;;19.99;83.25
13869;BME280;7004;48.206;16.402;2023-06-26T04:42:09;99772.63;;;20.15;81.58
13869;BME280;7004;48.206;16.402;2023-06-26T04:44:38;99772.00;;;20.21;81.41
13869;BME280;7004;48.206;16.402;2023-06-26T04:47:04;99780.84;;;20.40;81.07
13869;BME280;7004;48.206;16.402;2023-06-26T04:49:30;99775.97;;;20.43;81.44
13869;BME280;7004;48.206;16.402;2023-06-26T04:51:56;99773.31;;;20.51;81.49
13869;BME280;7004;48.206;16.402;2023-06-26T04:54:26;99780.28;;;20.62;80.62
13869;BME280;7004;48.206;16.402;2023-06-26T04:56:53;99779.03;;;20.83;80.19
13869;BME280;7004;48.206;16.402;2023-06-26T04:59:19;99788.81;;;20.84;78.59
13869;BME280;7004;48.206;16.402;2023-06-26T05:01:45;99780.25;;;20.88;79.55
13869;BME280;7004;48.206;16.402;2023-06-26T05:04:15;99785.00;;;21.11;78.87
13869;BME280;7004;48.206;16.402;2023-06-26T05:06:42;99779.63;;;21.11;76.14
13869;BME280;7004;48.206;16.402;2023-06-26T05:09:09;99778.00;;;21.34;77.01
13869;BME280;7004;48.206;16.402;2023-06-26T05:11:37;99778.56;;;21.38;77.09
13869;BME280;7004;48.206;16.402;2023-06-26T05:14:03;99779.41;;;21.47;76.38
13869;BME280;7004;48.206;16.402;2023-06-26T05:16:29;99781.44;;;21.86;74.00
13869;BME280;7004;48.206;16.402;2023-06-26T05:18:56;99780.94;;;21.74;74.47
13869;BME280;7004;48.206;16.402;2023-06-26T05:21:22;99772.88;;;21.90;74.19
13869;BME280;7004;48.206;16.402;2023-06-26T05:23:49;99776.22;;;22.00;73.61
13869;BME280;7004;48.206;16.402;2023-06-26T05:26:16;99773.22;;;21.95;74.90
13869;BME280;7004;48.206;16.402;2023-06-26T05:28:43;99776.06;;;22.27;72.21
13869;BME280;7004;48.206;16.402;2023-06-26T05:31:15;99781.88;;;22.46;69.80
13869;BME280;7004;48.206;16.402;2023-06-26T05:33:44;99779.34;;;22.53;71.02
13869;BME280;7004;48.206;16.402;2023-06-26T05:36:13;99776.03;;;22.35;67.03
13869;BME280;7004;48.206;16.402;2023-06-26T05:38:42;99784.66;;;22.78;65.10
13869;BME280;7004;48.206;16.402;2023-06-26T05:41:09;99783.91;;;22.92;61.67
13869;BME280;7004;48.206;16.402;2023-06-26T05:43:35;99783.78;;;23.25;61.08
13869;BME280;7004;48.206;16.402;2023-06-26T05:46:01;99785.50;;;23.18;62.67
13869;BME280;7004;48.206;16.402;2023-06-26T05:48:27;99780.72;;;23.28;60.29
13869;BME280;7004;48.206;16.402;2023-06-26T05:50:54;99783.75;;;22.85;64.01
13869;BME280;7004;48.206;16.402;2023-06-26T05:53:20;99781.16;;;22.61;59.17
13869;BME280;7004;48.206;16.402;2023-06-26T05:55:47;99783.50;;;23.43;54.79
13869;BME280;7004;48.206;16.402;2023-06-26T05:58:13;99786.69;;;23.15;57.24
13869;BME280;7004;48.206;16.402;2023-06-26T06:00:40;99783.63;;;23.72;55.14
13869;BME280;7004;48.206;16.402;2023-06-26T06:03:09;99779.03;;;23.27;56.17
13869;BME280;7004;48.206;16.402;2023-06-26T06:05:36;99777.25;;;23.19;55.82
13869;BME280;7004;48.206;16.402;2023-06-26T06:08:03;99778.22;;;23.72;55.06
13869;BME280;7004;48.206;16.402;2023-06-26T06:10:29;99778.44;;;23.63;56.83
13869;BME280;7004;48.206;16.402;2023-06-26T06:12:55;99783.09;;;23.77;54.64
13869;BME280;7004;48.206;16.402;2023-06-26T06:15:21;99774.88;;;24.08;54.12
13869;BME280;7004;48.206;16.402;2023-06-26T06:17:47;99776.13;;;24.20;53.61
13869;BME280;7004;48.206;16.402;2023-06-26T06:20:13;99774.84;;;23.70;56.00
13869;BME280;7004;48.206;16.402;2023-06-26T06:22:40;99778.03;;;24.50;54.12
13869;BME280;7004;48.206;16.402;2023-06-26T06:25:06;99768.84;;;24.36;54.69
13869;BME280;7004;48.206;16.402;2023-06-26T06:27:32;99772.69;;;23.89;52.86
13869;BME280;7004;48.206;16.402;2023-06-26T06:29:58;99783.47;;;24.27;51.92
13869;BME280;7004;48.206;16.402;2023-06-26T06:32:24;99781.38;;;24.81;50.59
13869;BME280;7004;48.206;16.402;2023-06-26T06:34:50;99776.25;;;24.72;50.92
13869;BME280;7004;48.206;16.402;2023-06-26T06:37:16;99784.78;;;25.20;50.35
13869;BME280;7004;48.206;16.402;2023-06-26T06:39:42;99777.03;;;25.53;49.48
13869;BME280;7004;48.206;16.402;2023-06-26T06:42:09;99783.50;;;24.86;50.23
13869;BME280;7004;48.206;16.402;2023-06-26T06:44:35;99782.56;;;25.45;48.45
13869;BME280;7004;48.206;16.402;2023-06-26T06:47:01;99782.44;;;25.02;48.77
13869;BME280;7004;48.206;16.402;2023-06-26T06:49:27;99777.06;;;26.03;47.83
13869;BME280;7004;48.206;16.402;2023-06-26T06:51:53;99771.34;;;26.19;47.77
13869;BME280;7004;48.206;16.402;2023-06-26T06:54:20;99774.28;;;26.18;47.89
13869;BME280;7004;48.206;16.402;2023-06-26T06:56:46;99783.50;;;25.80;48.52
13869;BME280;7004;48.206;16.402;2023-06-26T06:59:12;99767.66;;;26.27;47.60
13869;BME280;7004;48.206;16.402;2023-06-26T07:01:40;99765.03;;;26.75;47.62
13869;BME280;7004;48.206;16.402;2023-06-26T07:04:07;99770.94;;;27.53;45.74
13869;BME280;7004;48.206;16.402;2023-06-26T07:06:33;99776.22;;;27.13;45.94
13869;BME280;7004;48.206;16.402;2023-06-26T07:09:00;99771.00;;;26.57;45.08
13869;BME280;7004;48.206;16.402;2023-06-26T07:11:26;99763.41;;;27.49;44.02
13869;BME280;7004;48.206;16.402;2023-06-26T07:13:52;99762.16;;;27.51;44.27
13869;BME280;7004;48.206;16.402;2023-06-26T07:16:18;99769.13;;;28.00;42.96
13869;BME280;7004;48.206;16.402;2023-06-26T07:18:44;99767.00;;;27.69;43.42
13869;BME280;7004;48.206;16.402;2023-06-26T07:21:10;99771.16;;;27.58;44.05
13869;BME280;7004;48.206;16.402;2023-06-26T07:23:36;99775.56;;;27.66;43.19
13869;BME280;7004;48.206;16.402;2023-06-26T07:26:02;99775.75;;;28.58;41.26
13869;BME280;7004;48.206;16.402;2023-06-26T07:28:28;99777.34;;;28.79;40.83
13869;BME280;7004;48.206;16.402;2023-06-26T07:30:54;99772.03;;;28.19;40.19
13869;BME280;7004;48.206;16.402;2023-06-26T07:33:20;99772.06;;;27.92;41.32
13869;BME280;7004;48.206;16.402;2023-06-26T07:35:46;99781.94;;;27.25;41.26
13869;BME280;7004;48.206;16.402;2023-06-26T07:38:12;99778.41;;;28.71;38.90
13869;BME280;7004;48.206;16.402;2023-06-26T07:40:39;99775.34;;;27.67;37.90
13869;BME280;7004;48.206;16.402;2023-06-26T07:43:05;99777.84;;;27.62;38.55
13869;BME280;7004;48.206;16.402;2023-06-26T07:45:31;99773.47;;;28.55;37.40
13869;BME280;7004;48.206;16.402;2023-06-26T07:47:57;99768.25;;;29.50;37.07
13869;BME280;7004;48.206;16.402;2023-06-26T07:50:23;99774.72;;;28.12;37.11
13869;BME280;7004;48.206;16.402;2023-06-26T07:52:50;99768.56;;;28.83;37.42
13869;BME280;7004;48.206;16.402;2023-06-26T07:55:17;99769.53;;;28.10;36.73
13869;BME280;7004;48.206;16.402;2023-06-26T07:57:44;99778.09;;;28.07;36.56
13869;BME280;7004;48.206;16.402;2023-06-26T08:00:11;99777.09;;;29.70;35.88
13869;BME280;7004;48.206;16.402;2023-06-26T08:02:38;99773.88;;;28.25;35.98
13869;BME280;7004;48.206;16.402;2023-06-26T08:05:05;99769.63;;;29.59;33.85
13869;BME280;7004;48.206;16.402;2023-06-26T08:07:31;99767.03;;;27.96;36.51
13869;BME280;7004;48.206;16.402;2023-06-26T08:09:57;99767.66;;;29.73;34.61
13869;BME280;7004;48.206;16.402;2023-06-26T08:12:23;99770.56;;;29.08;35.76
13869;BME280;7004;48.206;16.402;2023-06-26T08:14:49;99774.41;;;29.32;35.38
13869;BME280;7004;48.206;16.402;2023-06-26T08:17:15;99769.75;;;28.94;35.25
13869;BME280;7004;48.206;16.402;2023-06-26T08:19:41;99766.22;;;28.93;36.23
13869;BME280;7004;48.206;16.402;2023-06-26T08:22:13;99764.56;;;28.86;36.83
13869;BME280;7004;48.206;16.402;2023-06-26T08:24:40;99769.94;;;28.99;37.10
13869;BME280;7004;48.206;16.402;2023-06-26T08:27:06;99765.50;;;28.60;37.65
13869;BME280;7004;48.206;16.402;2023-06-26T08:29:33;99759.28;;;30.24;36.27
13869;BME280;7004;48.206;16.402;2023-06-26T08:31:59;99757.94;;;30.34;36.17
13869;BME280;7004;48.206;16.402;2023-06-26T08:34:33;99764.03;;;30.04;35.52
13869;BME280;7004;48.206;16.402;2023-06-26T08:36:59;99760.19;;;31.10;36.25
13869;BME280;7004;48.206;16.402;2023-06-26T08:39:25;99766.31;;;30.32;35.77
13869;BME280;7004;48.206;16.402;2023-06-26T08:41:52;99766.00;;;29.72;36.08
13869;BME280;7004;48.206;16.402;2023-06-26T08:44:18;99758.38;;;30.05;35.58
13869;BME280;7004;48.206;16.402;2023-06-26T08:46:51;99761.63;;;29.32;36.28
13869;BME280;7004;48.206;16.402;2023-06-26T08:52:30;99760.06;;;29.81;35.55
13869;BME280;7004;48.206;16.402;2023-06-26T08:54:59;99753.19;;;29.47;35.76
13869;BME280;7004;48.206;16.402;2023-06-26T08:57:26;99746.00;;;30.90;35.92
13869;BME280;7004;48.206;16.402;2023-06-26T08:59:53;99742.00;;;31.04;36.40
13869;BME280;7004;48.206;16.402;2023-06-26T09:02:20;99743.69;;;30.32;36.69
13869;BME280;7004;48.206;16.402;2023-06-26T09:04:47;99737.66;;;31.45;35.05
13869;BME280;7004;48.206;16.402;2023-06-26T09:07:15;99739.13;;;31.71;34.70
13869;BME280;7004;48.206;16.402;2023-06-26T09:09:42;99734.63;;;30.13;34.20
13869;BME280;7004;48.206;16.402;2023-06-26T09:12:12;99729.00;;;30.51;35.37
13869;BME280;7004;48.206;16.402;2023-06-26T09:14:39;99732.72;;;31.35;34.95
13869;BME280;7004;48.206;16.402;2023-06-26T09:17:05;99730.81;;;31.66;35.66
13869;BME280;7004;48.206;16.402;2023-06-26T09:19:31;99731.91;;;31.65;36.39
13869;BME280;7004;48.206;16.402;2023-06-26T09:21:57;99726.69;;;32.34;32.67
13869;BME280;7004;48.206;16.402;2023-06-26T09:24:23;99719.63;;;31.26;34.51
13869;BME280;7004;48.206;16.402;2023-06-26T09:26:51;99723.78;;;30.50;37.06
13869;BME280;7004;48.206;16.402;2023-06-26T09:29:18;99717.28;;;31.29;36.36
13869;BME280;7004;48.206;16.402;2023-06-26T09:31:45;99716.94;;;31.80;35.94
13869;BME280;7004;48.206;16.402;2023-06-26T09:34:11;99718.41;;;31.40;36.09
13869;BME280;7004;48.206;16.402;2023-06-26T09:36:37;99712.78;;;31.89;36.45
13869;BME280;7004;48.206;16.402;2023-06-26T09:39:05;99713.06;;;32.75;34.12
13869;BME280;7004;48.206;16.402;2023-06-26T09:41:35;99715.81;;;31.57;35.36
13869;BME280;7004;48.206;16.402;2023-06-26T09:44:03;99715.59;;;31.28;37.03
13869;BME280;7004;48.206;16.402;2023-06-26T09:46:30;99714.53;;;31.83;34.84
13869;BME280;7004;48.206;16.402;2023-06-26T09:49:09;99714.09;;;31.32;35.88
13869;BME280;7004;48.206;16.402;2023-06-26T09:51:40;99710.59;;;30.83;34.94
13869;BME280;7004;48.206;16.402;2023-06-26T09:54:08;99710.72;;;30.88;35.36
13869;BME280;7004;48.206;16.402;2023-06-26T09:56:35;99705.97;;;31.56;34.40
13869;BME280;7004;48.206;16.402;2023-06-26T09:59:04;99708.81;;;30.89;35.94
13869;BME280;7004;48.206;16.402;2023-06-26T10:01:32;99699.25;;;31.70;34.99
13869;BME280;7004;48.206;16.402;2023-06-26T10:03:59;99705.41;;;31.89;35.26
13869;BME280;7004;48.206;16.402;2023-06-26T10:08:58;99692.41;;;31.38;35.59
13869;BME280;7004;48.206;16.402;2023-06-26T10:11:26;99688.69;;;31.97;34.90
13869;BME280;7004;48.206;16.402;2023-06-26T10:13:56;99691.88;;;31.71;34.19
13869;BME280;7004;48.206;16.402;2023-06-26T10:16:32;99696.91;;;31.02;36.11
13869;BME280;7004;48.206;16.402;2023-06-26T10:19:04;99687.47;;;31.58;36.13
13869;BME280;7004;48.206;16.402;2023-06-26T10:21:34;99694.09;;;31.20;35.60
13869;BME280;7004;48.206;16.402;2023-06-26T10:24:06;99673.09;;;31.86;34.36
13869;BME280;7004;48.206;16.402;2023-06-26T10:26:42;99670.47;;;31.68;33.68
13869;BME280;7004;48.206;16.402;2023-06-26T10:29:10;99671.44;;;32.73;33.00
13869;BME280;7004;48.206;16.402;2023-06-26T10:31:38;99673.81;;;31.93;35.23
13869;BME280;7004;48.206;16.402;2023-06-26T10:34:06;99667.66;;;32.10;35.50
13869;BME280;7004;48.206;16.402;2023-06-26T10:36:32;99670.13;;;32.23;35.73
13869;BME280;7004;48.206;16.402;2023-06-26T10:39:05;99671.59;;;32.42;33.89
13869;BME280;7004;48.206;16.402;2023-06-26T10:41:41;99666.44;;;33.27;32.68
13869;BME280;7004;48.206;16.402;2023-06-26T10:44:16;99673.25;;;33.75;31.98
13869;BME280;7004;48.206;16.402;2023-06-26T10:46:54;99664.75;;;32.16;33.47
13869;BME280;7004;48.206;16.402;2023-06-26T10:49:26;99669.88;;;31.77;32.11
13869;BME280;7004;48.206;16.402;2023-06-26T10:51:54;99671.75;;;32.24;32.39
13869;BME280;7004;48.206;16.402;2023-06-26T10:54:22;99670.94;;;32.35;34.38
13869;BME280;7004;48.206;16.402;2023-06-26T10:56:54;99672.16;;;32.68;32.79
13869;BME280;7004;48.206;16.402;2023-06-26T10:59:28;99660.97;;;31.59;33.35
13869;BME280;7004;48.206;16.402;2023-06-26T11:02:01;99664.53;;;31.47;33.70
13869;BME280;7004;48.206;16.402;2023-06-26T11:04:44;99666.06;;;31.90;34.37
13869;BME280;7004;48.206;16.402;2023-06-26T11:07:25;99657.13;;;33.11;32.60
13869;BME280;7004;48.206;16.402;2023-06-26T11:09:56;99663.81;;;32.75;33.49
13869;BME280;7004;48.206;16.402;2023-06-26T11:12:42;99664.81;;;31.27;32.02
13869;BME280;7004;48.206;16.402;2023-06-26T11:15:14;99667.38;;;31.52;32.77
13869;BME280;7004;48.206;16.402;2023-06-26T11:17:42;99663.59;;;31.23;32.60
13869;BME280;7004;48.206;16.402;2023-06-26T11:20:14;99654.84;;;32.39;33.77
13869;BME280;7004;48.206;16.402;2023-06-26T11:22:43;99662.53;;;31.78;33.27
13869;BME280;7004;48.206;16.402;2023-06-26T11:25:10;99658.94;;;31.54;32.56
13869;BME280;7004;48.206;16.402;2023-06-26T11:27:41;99654.47;;;32.88;31.40
13869;BME280;7004;48.206;16.402;2023-06-26T11:30:10;99659.94;;;31.95;32.32
13869;BME280;7004;48.206;16.402;2023-06-26T11:32:40;99651.00;;;31.76;33.03
13869;BME280;7004;48.206;16.402;2023-06-26T11:35:12;99644.56;;;32.06;32.76
13869;BME280;7004;48.206;16.402;2023-06-26T11:37:38;99653.22;;;31.44;33.42
13869;BME280;7004;48.206;16.402;2023-06-26T11:40:27;99650.91;;;31.94;32.62
13869;BME280;7004;48.206;16.402;2023-06-26T11:42:58;99646.34;;;31.53;32.29
13869;BME280;7004;48.206;16.402;2023-06-26T11:45:28;99642.84;;;32.52;32.67
13869;BME280;7004;48.206;16.402;2023-06-26T11:47:59;99652.69;;;32.81;32.45
13869;BME280;7004;48.206;16.402;2023-06-26T11:50:25;99649.91;;;32.93;31.88
13869;BME280;7004;48.206;16.402;2023-06-26T11:52:57;99647.19;;;32.64;31.15
13869;BME280;7004;48.206;16.402;2023-06-26T11:55:25;99641.94;;;31.87;32.37
13869;BME280;7004;48.206;16.402;2023-06-26T11:57:56;99643.72;;;31.46;32.55
13869;BME280;7004;48.206;16.402;2023-06-26T12:00:23;99642.25;;;32.50;32.21
13869;BME280;7004;48.206;16.402;2023-06-26T12:02:50;99636.16;;;31.95;33.36
13869;BME280;7004;48.206;16.402;2023-06-26T12:05:18;99635.91;;;31.73;33.23
13869;BME280;7004;48.206;16.402;2023-06-26T12:07:47;99638.75;;;31.90;32.84
13869;BME280;7004;48.206;16.402;2023-06-26T12:10:15;99631.00;;;32.63;33.55
13869;BME280;7004;48.206;16.402;2023-06-26T12:12:45;99635.56;;;31.93;33.71
13869;BME280;7004;48.206;16.402;2023-06-26T12:15:16;99627.88;;;31.25;33.52
13869;BME280;7004;48.206;16.402;2023-06-26T12:17:43;99625.34;;;31.65;31.86
13869;BME280;7004;48.206;16.402;2023-06-26T12:20:23;99623.66;;;31.41;32.16
13869;BME280;7004;48.206;16.402;2023-06-26T12:22:49;99618.97;;;32.35;32.73
13869;BME280;7004;48.206;16.402;2023-06-26T12:25:21;99617.44;;;33.31;30.92
13869;BME280;7004;48.206;16.402;2023-06-26T12:27:48;99615.97;;;31.73;31.96
13869;BME280;7004;48.206;16.402;2023-06-26T12:30:15;99611.06;;;32.10;32.16
13869;BME280;7004;48.206;16.402;2023-06-26T12:32:46;99611.28;;;31.26;32.33
13869;BME280;7004;48.206;16.402;2023-06-26T12:35:12;99614.09;;;32.26;30.66
13869;BME280;7004;48.206;16.402;2023-06-26T12:37:38;99616.50;;;32.62;30.71
13869;BME280;7004;48.206;16.402;2023-06-26T12:40:20;99608.59;;;32.37;32.49
13869;BME280;7004;48.206;16.402;2023-06-26T12:42:48;99597.50;;;31.80;31.01
13869;BME280;7004;48.206;16.402;2023-06-26T12:45:15;99601.31;;;32.55;31.65
13869;BME280;7004;48.206;16.402;2023-06-26T12:47:41;99609.19;;;32.51;32.59
13869;BME280;7004;48.206;16.402;2023-06-26T12:50:08;99601.22;;;31.97;32.40
13869;BME280;7004;48.206;16.402;2023-06-26T12:52:34;99592.88;;;33.02;32.05
13869;BME280;7004;48.206;16.402;2023-06-26T12:55:00;99593.94;;;33.01;31.48
13869;BME280;7004;48.206;16.402;2023-06-26T12:57:26;99597.19;;;32.40;31.65
13869;BME280;7004;48.206;16.402;2023-06-26T12:59:53;99598.13;;;33.03;32.66
13869;BME280;7004;48.206;16.402;2023-06-26T13:02:19;99598.06;;;32.86;31.10
13869;BME280;7004;48.206;16.402;2023-06-26T13:04:46;99591.56;;;33.38;31.31
13869;BME280;7004;48.206;16.402;2023-06-26T13:07:12;99591.81;;;32.46;31.71
13869;BME280;7004;48.206;16.402;2023-06-26T13:09:38;99593.84;;;31.98;33.92